sensor_id;sensor_type;location;lat;lon;timestamp;temperature;humidity
31455;DHT22;18084;53.028;8.834;2023-05-15T04:56:31;12.80;99.90
31455;DHT22;18084;53.028;8.834;2023-05-15T04:58:57;12.10;99.90
31455;DHT22;18084;53.028;8.834;2023-05-15T05:01:22;12.20;99.90
31455;DHT22;18084;53.028;8.834;2023-05-15T05:03:48;12.40;99.90
31455;DHT22;18084;53.028;8.834;2023-05-15T05:06:13;12.50;99.90
31455;DHT22;18084;53.028;8.834;2023-05-15T05:08:39;12.60;99.90
31455;DHT22;18084;53.028;8.834;2023-05-15T05:11:04;12.80;99.90
31455;DHT22;18084;53.028;8.834;2023-05-15T05:13:31;12.90;99.90
31455;DHT22;18084;53.028;8.834;2023-05-15T05:15:57;13.00;99.90
31455;DHT22;18084;53.028;8.834;2023-05-15T05:18:22;13.20;99.90
31455;DHT22;18084;53.028;8.834;2023-05-15T05:20:48;13.20;99.90
31455;DHT22;18084;53.028;8.834;2023-05-15T05:23:14;13.30;99.90
31455;DHT22;18084;53.028;8.834;2023-05-15T05:25:40;13.40;99.90
31455;DHT22;18084;53.028;8.834;2023-05-15T05:28:06;13.50;99.90
31455;DHT22;18084;53.028;8.834;2023-05-15T05:30:31;13.60;99.90
31455;DHT22;18084;53.028;8.834;2023-05-15T05:32:58;13.90;99.90
31455;DHT22;18084;53.028;8.834;2023-05-15T05:35:24;14.00;99.90
31455;DHT22;18084;53.028;8.834;2023-05-15T05:37:53;14.30;99.90
31455;DHT22;18084;53.028;8.834;2023-05-15T05:40:18;14.30;99.90
31455;DHT22;18084;53.028;8.834;2023-05-15T05:42:44;14.50;99.90
31455;DHT22;18084;53.028;8.834;2023-05-15T05:45:10;14.70;99.90
31455;DHT22;18084;53.028;8.834;2023-05-15T05:47:35;15.00;99.90
31455;DHT22;18084;53.028;8.834;2023-05-15T05:50:01;15.30;99.90
31455;DHT22;18084;53.028;8.834;2023-05-15T05:52:27;15.50;99.90
31455;DHT22;18084;53.028;8.834;2023-05-15T05:54:53;15.70;99.10
31455;DHT22;18084;53.028;8.834;2023-05-15T05:57:31;16.00;96.80
31455;DHT22;18084;53.028;8.834;2023-05-15T06:00:01;16.20;41.50
31455;DHT22;18084;53.028;8.834;2023-05-15T06:02:27;16.80;1.00
31455;DHT22;18084;53.028;8.834;2023-05-15T06:04:53;17.30;1.00
31455;DHT22;18084;53.028;8.834;2023-05-15T06:07:19;17.50;1.00
31455;DHT22;18084;53.028;8.834;2023-05-15T06:09:46;17.60;1.00
31455;DHT22;18084;53.028;8.834;2023-05-15T06:12:13;17.60;1.00
31455;DHT22;18084;53.028;8.834;2023-05-15T06:14:38;17.50;1.00
31455;DHT22;18084;53.028;8.834;2023-05-15T06:17:04;17.90;1.00
31455;DHT22;18084;53.028;8.834;2023-05-15T06:19:30;18.10;1.00
31455;DHT22;18084;53.028;8.834;2023-05-15T06:21:55;18.10;99.90
31455;DHT22;18084;53.028;8.834;2023-05-15T06:24:21;18.20;1.00
31455;DHT22;18084;53.028;8.834;2023-05-15T06:26:46;18.40;99.90
31455;DHT22;18084;53.028;8.834;2023-05-15T06:29:13;19.00;99.90
31455;DHT22;18084;53.028;8.834;2023-05-15T06:31:39;19.20;78.90
31455;DHT22;18084;53.028;8.834;2023-05-15T06:34:04;19.60;99.90
31455;DHT22;18084;53.028;8.834;2023-05-15T06:36:30;19.60;99.90
31455;DHT22;18084;53.028;8.834;2023-05-15T06:38:56;19.80;1.00
31455;DHT22;18084;53.028;8.834;2023-05-15T06:41:21;19.70;99.90
31455;DHT22;18084;53.028;8.834;2023-05-15T06:43:47;19.60;99.90
31455;DHT22;18084;53.028;8.834;2023-05-15T06:46:14;19.70;99.90
31455;DHT22;18084;53.028;8.834;2023-05-15T06:48:46;20.00;99.90
31455;DHT22;18084;53.028;8.834;2023-05-15T06:51:12;20.00;99.90
31455;DHT22;18084;53.028;8.834;2023-05-15T06:53:38;19.90;99.90
31455;DHT22;18084;53.028;8.834;2023-05-15T06:56:03;20.10;1.00
31455;DHT22;18084;53.028;8.834;2023-05-15T06:58:29;20.10;99.90
31455;DHT22;18084;53.028;8.834;2023-05-15T07:00:54;20.20;99.90
31455;DHT22;18084;53.028;8.834;2023-05-15T07:03:20;20.30;14.70
31455;DHT22;18084;53.028;8.834;2023-05-15T07:05:46;20.20;1.00
31455;DHT22;18084;53.028;8.834;2023-05-15T07:08:12;20.10;99.90
31455;DHT22;18084;53.028;8.834;2023-05-15T07:10:37;19.90;6.00
31455;DHT22;18084;53.028;8.834;2023-05-15T07:13:03;19.50;99.90
31455;DHT22;18084;53.028;8.834;2023-05-15T07:15:28;19.90;99.90
31455;DHT22;18084;53.028;8.834;2023-05-15T07:17:55;19.60;99.90
31455;DHT22;18084;53.028;8.834;2023-05-15T07:20:21;19.30;99.90
31455;DHT22;18084;53.028;8.834;2023-05-15T07:22:46;19.90;99.90
31455;DHT22;18084;53.028;8.834;2023-05-15T07:25:12;19.90;99.90
31455;DHT22;18084;53.028;8.834;2023-05-15T07:27:37;20.10;1.00
31455;DHT22;18084;53.028;8.834;2023-05-15T07:30:03;20.30;63.00
31455;DHT22;18084;53.028;8.834;2023-05-15T07:32:29;20.40;63.70
31455;DHT22;18084;53.028;8.834;2023-05-15T07:34:56;20.30;99.90
31455;DHT22;18084;53.028;8.834;2023-05-15T07:37:21;20.30;47.70
31455;DHT22;18084;53.028;8.834;2023-05-15T07:39:48;20.70;1.00
31455;DHT22;18084;53.028;8.834;2023-05-15T07:42:13;20.60;99.90
31455;DHT22;18084;53.028;8.834;2023-05-15T07:44:39;20.80;1.00
31455;DHT22;18084;53.028;8.834;2023-05-15T07:47:05;20.80;99.90
31455;DHT22;18084;53.028;8.834;2023-05-15T07:49:31;20.80;99.90
31455;DHT22;18084;53.028;8.834;2023-05-15T07:51:57;21.10;1.00
31455;DHT22;18084;53.028;8.834;2023-05-15T07:54:23;21.30;1.00
31455;DHT22;18084;53.028;8.834;2023-05-15T07:56:48;21.10;99.90
31455;DHT22;18084;53.028;8.834;2023-05-15T07:59:14;20.90;1.00
31455;DHT22;18084;53.028;8.834;2023-05-15T08:01:39;20.90;1.00
31455;DHT22;18084;53.028;8.834;2023-05-15T08:04:06;21.00;99.90
31455;DHT22;18084;53.028;8.834;2023-05-15T08:06:32;21.70;1.00
31455;DHT22;18084;53.028;8.834;2023-05-15T08:08:58;21.40;99.90
31455;DHT22;18084;53.028;8.834;2023-05-15T08:11:24;22.00;99.90
31455;DHT22;18084;53.028;8.834;2023-05-15T08:13:49;21.80;99.90
31455;DHT22;18084;53.028;8.834;2023-05-15T08:16:15;22.10;99.90
31455;DHT22;18084;53.028;8.834;2023-05-15T08:18:41;22.30;99.90
31455;DHT22;18084;53.028;8.834;2023-05-15T08:21:07;22.20;99.90
31455;DHT22;18084;53.028;8.834;2023-05-15T08:23:33;22.10;1.00
31455;DHT22;18084;53.028;8.834;2023-05-15T08:25:59;22.50;1.00
31455;DHT22;18084;53.028;8.834;2023-05-15T08:28:24;22.20;99.90
31455;DHT22;18084;53.028;8.834;2023-05-15T08:30:50;21.90;99.90
31455;DHT22;18084;53.028;8.834;2023-05-15T08:33:15;22.40;99.90
31455;DHT22;18084;53.028;8.834;2023-05-15T08:35:41;22.70;99.90
31455;DHT22;18084;53.028;8.834;2023-05-15T08:38:06;22.50;99.90
31455;DHT22;18084;53.028;8.834;2023-05-15T08:40:32;22.80;73.40
31455;DHT22;18084;53.028;8.834;2023-05-15T08:43:02;22.80;1.00
31455;DHT22;18084;53.028;8.834;2023-05-15T08:45:31;23.10;41.50
31455;DHT22;18084;53.028;8.834;2023-05-15T08:47:57;23.60;11.90
31455;DHT22;18084;53.028;8.834;2023-05-15T08:50:25;23.70;99.90
31455;DHT22;18084;53.028;8.834;2023-05-15T08:52:52;23.40;99.90
31455;DHT22;18084;53.028;8.834;2023-05-15T08:55:22;23.00;99.90
31455;DHT22;18084;53.028;8.834;2023-05-15T08:57:48;23.00;99.90
31455;DHT22;18084;53.028;8.834;2023-05-15T09:00:15;22.80;99.90
31455;DHT22;18084;53.028;8.834;2023-05-15T09:02:42;22.70;99.90
31455;DHT22;18084;53.028;8.834;2023-05-15T09:05:08;22.70;99.90
31455;DHT22;18084;53.028;8.834;2023-05-15T09:07:39;23.00;99.90
31455;DHT22;18084;53.028;8.834;2023-05-15T09:10:07;23.20;99.90
31455;DHT22;18084;53.028;8.834;2023-05-15T09:12:35;23.30;99.90
31455;DHT22;18084;53.028;8.834;2023-05-15T09:15:16;23.30;99.90
31455;DHT22;18084;53.028;8.834;2023-05-15T09:17:43;23.40;99.90
31455;DHT22;18084;53.028;8.834;2023-05-15T09:20:32;23.60;99.90
31455;DHT22;18084;53.028;8.834;2023-05-15T09:22:59;23.60;99.90
31455;DHT22;18084;53.028;8.834;2023-05-15T09:25:34;23.50;99.90
31455;DHT22;18084;53.028;8.834;2023-05-15T09:28:01;23.80;99.90
31455;DHT22;18084;53.028;8.834;2023-05-15T09:30:27;23.80;99.90
31455;DHT22;18084;53.028;8.834;2023-05-15T09:32:58;24.00;99.90
31455;DHT22;18084;53.028;8.834;2023-05-15T09:35:33;23.90;99.90
31455;DHT22;18084;53.028;8.834;2023-05-15T09:38:00;24.00;99.90
31455;DHT22;18084;53.028;8.834;2023-05-15T09:40:30;23.70;99.90
31455;DHT22;18084;53.028;8.834;2023-05-15T09:42:57;23.60;99.90
31455;DHT22;18084;53.028;8.834;2023-05-15T09:45:23;23.60;99.90
31455;DHT22;18084;53.028;8.834;2023-05-15T09:47:51;23.40;99.90
31455;DHT22;18084;53.028;8.834;2023-05-15T09:50:30;23.50;99.90
31455;DHT22;18084;53.028;8.834;2023-05-15T09:52:58;23.40;99.90
31455;DHT22;18084;53.028;8.834;2023-05-15T09:55:24;23.20;99.90
31455;DHT22;18084;53.028;8.834;2023-05-15T09:58:06;23.40;99.90
31455;DHT22;18084;53.028;8.834;2023-05-15T10:00:33;23.90;99.90
31455;DHT22;18084;53.028;8.834;2023-05-15T10:03:02;23.40;1.00
31455;DHT22;18084;53.028;8.834;2023-05-15T10:05:28;23.20;99.90
31455;DHT22;18084;53.028;8.834;2023-05-15T10:07:55;22.90;79.20
31455;DHT22;18084;53.028;8.834;2023-05-15T10:10:21;22.50;99.90
31455;DHT22;18084;53.028;8.834;2023-05-15T10:12:53;22.20;1.00
31455;DHT22;18084;53.028;8.834;2023-05-15T10:15:20;22.20;1.00
31455;DHT22;18084;53.028;8.834;2023-05-15T10:17:51;22.10;99.90
31455;DHT22;18084;53.028;8.834;2023-05-15T10:20:22;22.20;6.90
31455;DHT22;18084;53.028;8.834;2023-05-15T10:22:53;21.80;99.90
31455;DHT22;18084;53.028;8.834;2023-05-15T10:25:37;21.80;99.90
31455;DHT22;18084;53.028;8.834;2023-05-15T10:28:07;22.10;99.90
31455;DHT22;18084;53.028;8.834;2023-05-15T10:30:33;21.90;95.00
31455;DHT22;18084;53.028;8.834;2023-05-15T10:32:59;21.80;13.90
31455;DHT22;18084;53.028;8.834;2023-05-15T10:35:26;22.00;1.00
31455;DHT22;18084;53.028;8.834;2023-05-15T10:37:52;22.20;99.90
31455;DHT22;18084;53.028;8.834;2023-05-15T10:40:18;22.30;1.00
31455;DHT22;18084;53.028;8.834;2023-05-15T10:42:45;22.30;99.90
31455;DHT22;18084;53.028;8.834;2023-05-15T10:45:12;22.50;1.00
31455;DHT22;18084;53.028;8.834;2023-05-15T10:47:39;22.30;1.00
31455;DHT22;18084;53.028;8.834;2023-05-15T10:50:06;22.50;1.00
31455;DHT22;18084;53.028;8.834;2023-05-15T10:52:32;22.30;99.90
31455;DHT22;18084;53.028;8.834;2023-05-15T10:54:58;22.40;1.00
31455;DHT22;18084;53.028;8.834;2023-05-15T10:57:24;22.50;1.00
31455;DHT22;18084;53.028;8.834;2023-05-15T10:59:50;22.70;99.90
31455;DHT22;18084;53.028;8.834;2023-05-15T11:02:24;22.80;99.90
31455;DHT22;18084;53.028;8.834;2023-05-15T11:04:58;22.90;1.00
31455;DHT22;18084;53.028;8.834;2023-05-15T11:07:24;22.80;41.90
31455;DHT22;18084;53.028;8.834;2023-05-15T11:09:52;22.80;99.90
31455;DHT22;18084;53.028;8.834;2023-05-15T11:12:19;23.00;1.00
31455;DHT22;18084;53.028;8.834;2023-05-15T11:17:22;22.20;99.90
31455;DHT22;18084;53.028;8.834;2023-05-15T11:27:25;22.80;99.90
31455;DHT22;18084;53.028;8.834;2023-05-15T11:30:13;22.80;99.90
31455;DHT22;18084;53.028;8.834;2023-05-15T11:32:49;22.60;99.90
31455;DHT22;18084;53.028;8.834;2023-05-15T11:35:23;22.40;99.90
31455;DHT22;18084;53.028;8.834;2023-05-15T11:37:54;22.60;99.90
31455;DHT22;18084;53.028;8.834;2023-05-15T11:40:30;22.40;90.50
31455;DHT22;18084;53.028;8.834;2023-05-15T11:43:16;22.50;84.90
31455;DHT22;18084;53.028;8.834;2023-05-15T11:45:44;22.80;99.90
31455;DHT22;18084;53.028;8.834;2023-05-15T11:48:15;22.70;95.80
31455;DHT22;18084;53.028;8.834;2023-05-15T11:50:41;23.10;1.00
31455;DHT22;18084;53.028;8.834;2023-05-15T11:53:08;23.20;99.90
31455;DHT22;18084;53.028;8.834;2023-05-15T11:55:40;23.30;99.90
31455;DHT22;18084;53.028;8.834;2023-05-15T11:58:10;23.60;99.90
31455;DHT22;18084;53.028;8.834;2023-05-15T12:00:38;23.50;99.90
31455;DHT22;18084;53.028;8.834;2023-05-15T12:03:03;23.50;73.10
31455;DHT22;18084;53.028;8.834;2023-05-15T12:05:29;23.60;99.90
31455;DHT22;18084;53.028;8.834;2023-05-15T12:07:55;23.70;20.30
31455;DHT22;18084;53.028;8.834;2023-05-15T12:10:21;23.40;12.60
31455;DHT22;18084;53.028;8.834;2023-05-15T12:12:47;23.20;7.70
31455;DHT22;18084;53.028;8.834;2023-05-15T12:15:15;23.00;39.00
31455;DHT22;18084;53.028;8.834;2023-05-15T12:17:42;22.80;29.20
31455;DHT22;18084;53.028;8.834;2023-05-15T12:20:15;22.90;10.40
31455;DHT22;18084;53.028;8.834;2023-05-15T12:22:41;22.90;43.90
31455;DHT22;18084;53.028;8.834;2023-05-15T12:25:08;23.30;49.20
31455;DHT22;18084;53.028;8.834;2023-05-15T12:27:34;23.30;48.50
31455;DHT22;18084;53.028;8.834;2023-05-15T12:30:01;23.10;1.00
31455;DHT22;18084;53.028;8.834;2023-05-15T12:32:29;23.20;28.20
31455;DHT22;18084;53.028;8.834;2023-05-15T12:34:55;23.30;78.30
31455;DHT22;18084;53.028;8.834;2023-05-15T12:37:21;23.40;21.20
31455;DHT22;18084;53.028;8.834;2023-05-15T12:40:05;24.10;15.70
31455;DHT22;18084;53.028;8.834;2023-05-15T12:42:42;23.20;32.90
31455;DHT22;18084;53.028;8.834;2023-05-15T12:45:16;23.10;92.00
31455;DHT22;18084;53.028;8.834;2023-05-15T12:47:43;23.40;88.60
31455;DHT22;18084;53.028;8.834;2023-05-15T12:50:22;23.50;63.60
31455;DHT22;18084;53.028;8.834;2023-05-15T12:52:57;23.40;37.40
31455;DHT22;18084;53.028;8.834;2023-05-15T12:55:28;23.50;54.60
31455;DHT22;18084;53.028;8.834;2023-05-15T12:57:57;23.10;29.80
31455;DHT22;18084;53.028;8.834;2023-05-15T13:00:24;23.10;26.30
31455;DHT22;18084;53.028;8.834;2023-05-15T13:02:53;23.40;32.10
31455;DHT22;18084;53.028;8.834;2023-05-15T13:05:22;23.20;78.30
31455;DHT22;18084;53.028;8.834;2023-05-15T13:07:47;23.50;99.90
31455;DHT22;18084;53.028;8.834;2023-05-15T13:10:14;23.20;99.90
31455;DHT22;18084;53.028;8.834;2023-05-15T13:12:46;23.00;99.90
31455;DHT22;18084;53.028;8.834;2023-05-15T13:15:36;23.10;99.90
31455;DHT22;18084;53.028;8.834;2023-05-15T13:18:10;23.20;99.90
31455;DHT22;18084;53.028;8.834;2023-05-15T13:20:38;23.00;99.90
31455;DHT22;18084;53.028;8.834;2023-05-15T13:23:06;22.80;99.90
31455;DHT22;18084;53.028;8.834;2023-05-15T13:25:32;22.90;99.90
31455;DHT22;18084;53.028;8.834;2023-05-15T13:28:00;22.90;99.90
31455;DHT22;18084;53.028;8.834;2023-05-15T13:30:26;22.80;99.90
31455;DHT22;18084;53.028;8.834;2023-05-15T13:32:52;22.90;99.90
31455;DHT22;18084;53.028;8.834;2023-05-15T13:35:18;22.70;99.90
31455;DHT22;18084;53.028;8.834;2023-05-15T13:37:44;22.70;99.90
31455;DHT22;18084;53.028;8.834;2023-05-15T13:40:10;22.70;99.90
31455;DHT22;18084;53.028;8.834;2023-05-15T13:42:39;22.90;99.90
31455;DHT22;18084;53.028;8.834;2023-05-15T13:45:09;22.60;99.90
31455;DHT22;18084;53.028;8.834;2023-05-15T13:47:35;22.70;99.90
31455;DHT22;18084;53.028;8.834;2023-05-15T13:50:01;22.60;99.90
31455;DHT22;18084;53.028;8.834;2023-05-15T13:52:27;22.60;99.90
31455;DHT22;18084;53.028;8.834;2023-05-15T13:54:53;22.70;99.90
31455;DHT22;18084;53.028;8.834;2023-05-15T13:57:20;22.60;99.90
31455;DHT22;18084;53.028;8.834;2023-05-15T13:59:45;22.60;99.90
31455;DHT22;18084;53.028;8.834;2023-05-15T14:02:11;22.60;99.90
31455;DHT22;18084;53.028;8.834;2023-05-15T14:04:36;22.30;99.90
31455;DHT22;18084;53.028;8.834;2023-05-15T14:07:02;22.20;1.00
31455;DHT22;18084;53.028;8.834;2023-05-15T14:09:28;21.80;28.60
31455;DHT22;18084;53.028;8.834;2023-05-15T14:11:54;22.10;99.90
31455;DHT22;18084;53.028;8.834;2023-05-15T14:14:19;22.20;26.40
31455;DHT22;18084;53.028;8.834;2023-05-15T14:16:45;22.10;24.00
31455;DHT22;18084;53.028;8.834;2023-05-15T14:19:10;21.90;12.80
31455;DHT22;18084;53.028;8.834;2023-05-15T14:21:39;22.10;65.60
31455;DHT22;18084;53.028;8.834;2023-05-15T14:24:05;21.90;36.50
31455;DHT22;18084;53.028;8.834;2023-05-15T14:26:30;21.70;1.20
31455;DHT22;18084;53.028;8.834;2023-05-15T14:28:56;21.70;48.10
31455;DHT22;18084;53.028;8.834;2023-05-15T14:31:22;21.70;34.30
31455;DHT22;18084;53.028;8.834;2023-05-15T14:33:50;21.50;42.10
31455;DHT22;18084;53.028;8.834;2023-05-15T14:36:16;21.50;1.80
31455;DHT22;18084;53.028;8.834;2023-05-15T14:38:42;21.60;1.00
31455;DHT22;18084;53.028;8.834;2023-05-15T14:41:12;21.90;1.00
31455;DHT22;18084;53.028;8.834;2023-05-15T14:43:38;21.90;1.00
31455;DHT22;18084;53.028;8.834;2023-05-15T14:46:04;21.80;1.00
31455;DHT22;18084;53.028;8.834;2023-05-15T14:48:29;21.60;1.00
31455;DHT22;18084;53.028;8.834;2023-05-15T14:50:56;21.50;18.90
31455;DHT22;18084;53.028;8.834;2023-05-15T14:53:22;21.60;18.30
31455;DHT22;18084;53.028;8.834;2023-05-15T14:55:47;21.70;4.80
31455;DHT22;18084;53.028;8.834;2023-05-15T14:58:14;21.40;31.80
31455;DHT22;18084;53.028;8.834;2023-05-15T15:00:41;21.40;73.60
31455;DHT22;18084;53.028;8.834;2023-05-15T15:03:07;21.40;99.90
31455;DHT22;18084;53.028;8.834;2023-05-15T15:05:33;21.20;99.90
31455;DHT22;18084;53.028;8.834;2023-05-15T15:08:07;21.30;99.90
31455;DHT22;18084;53.028;8.834;2023-05-15T15:10:35;21.20;99.90
31455;DHT22;18084;53.028;8.834;2023-05-15T15:13:03;21.10;99.90
31455;DHT22;18084;53.028;8.834;2023-05-15T15:15:29;21.00;99.90
31455;DHT22;18084;53.028;8.834;2023-05-15T15:17:55;21.10;1.00
31455;DHT22;18084;53.028;8.834;2023-05-15T15:20:25;21.10;18.40
31455;DHT22;18084;53.028;8.834;2023-05-15T15:22:51;20.80;99.90
31455;DHT22;18084;53.028;8.834;2023-05-15T15:25:17;20.70;99.90
31455;DHT22;18084;53.028;8.834;2023-05-15T15:27:43;20.60;99.90
31455;DHT22;18084;53.028;8.834;2023-05-15T15:30:09;20.50;99.90
31455;DHT22;18084;53.028;8.834;2023-05-15T15:32:36;20.60;99.90
31455;DHT22;18084;53.028;8.834;2023-05-15T15:35:02;20.40;99.90
31455;DHT22;18084;53.028;8.834;2023-05-15T15:37:33;20.30;99.90
31455;DHT22;18084;53.028;8.834;2023-05-15T15:39:59;20.00;99.90
31455;DHT22;18084;53.028;8.834;2023-05-15T15:42:25;20.00;1.00
31455;DHT22;18084;53.028;8.834;2023-05-15T15:44:52;20.10;99.90
31455;DHT22;18084;53.028;8.834;2023-05-15T15:47:18;20.10;99.90
31455;DHT22;18084;53.028;8.834;2023-05-15T15:49:43;20.10;99.90
31455;DHT22;18084;53.028;8.834;2023-05-15T15:52:09;20.10;99.90
31455;DHT22;18084;53.028;8.834;2023-05-15T15:54:34;21.30;1.00
31455;DHT22;18084;53.028;8.834;2023-05-15T15:57:01;20.10;99.90
31455;DHT22;18084;53.028;8.834;2023-05-15T15:59:28;20.00;35.30
31455;DHT22;18084;53.028;8.834;2023-05-15T16:01:55;20.20;1.00
31455;DHT22;18084;53.028;8.834;2023-05-15T16:04:21;20.20;1.00
31455;DHT22;18084;53.028;8.834;2023-05-15T16:06:47;20.30;1.00
31455;DHT22;18084;53.028;8.834;2023-05-15T16:09:13;20.20;99.90
31455;DHT22;18084;53.028;8.834;2023-05-15T16:11:38;20.20;1.00
31455;DHT22;18084;53.028;8.834;2023-05-15T16:14:04;20.10;99.90
31455;DHT22;18084;53.028;8.834;2023-05-15T16:16:30;19.90;99.90
31455;DHT22;18084;53.028;8.834;2023-05-15T16:18:55;19.70;99.90
31455;DHT22;18084;53.028;8.834;2023-05-15T16:21:21;19.80;1.00
31455;DHT22;18084;53.028;8.834;2023-05-15T16:23:46;19.50;35.00
31455;DHT22;18084;53.028;8.834;2023-05-15T16:26:12;20.40;99.90
31455;DHT22;18084;53.028;8.834;2023-05-15T16:28:37;19.30;99.90
31455;DHT22;18084;53.028;8.834;2023-05-15T16:31:03;19.80;1.00
31455;DHT22;18084;53.028;8.834;2023-05-15T16:33:29;18.90;99.90
31455;DHT22;18084;53.028;8.834;2023-05-15T16:35:55;18.80;99.90
31455;DHT22;18084;53.028;8.834;2023-05-15T16:38:21;18.80;99.90
31455;DHT22;18084;53.028;8.834;2023-05-15T16:40:47;18.70;11.80
31455;DHT22;18084;53.028;8.834;2023-05-15T16:43:14;20.60;99.90
31455;DHT22;18084;53.028;8.834;2023-05-15T16:45:39;18.40;45.60
31455;DHT22;18084;53.028;8.834;2023-05-15T16:48:05;18.30;99.90
31455;DHT22;18084;53.028;8.834;2023-05-15T16:50:34;19.20;99.90
31455;DHT22;18084;53.028;8.834;2023-05-15T16:52:59;18.10;99.90
31455;DHT22;18084;53.028;8.834;2023-05-15T16:55:25;17.70;94.60
31455;DHT22;18084;53.028;8.834;2023-05-15T16:57:51;17.80;63.20
31455;DHT22;18084;53.028;8.834;2023-05-15T17:00:17;17.60;99.90
31455;DHT22;18084;53.028;8.834;2023-05-15T17:02:45;17.30;1.00
31455;DHT22;18084;53.028;8.834;2023-05-15T17:05:10;17.30;99.90
31455;DHT22;18084;53.028;8.834;2023-05-15T17:07:37;17.20;99.90
31455;DHT22;18084;53.028;8.834;2023-05-15T17:10:04;16.80;99.90
31455;DHT22;18084;53.028;8.834;2023-05-15T17:12:30;16.90;1.00
31455;DHT22;18084;53.028;8.834;2023-05-15T17:14:55;16.60;4.40
31455;DHT22;18084;53.028;8.834;2023-05-15T17:17:22;16.50;99.90
31455;DHT22;18084;53.028;8.834;2023-05-15T17:19:50;16.40;99.90
31455;DHT22;18084;53.028;8.834;2023-05-15T17:22:16;16.20;99.90
31455;DHT22;18084;53.028;8.834;2023-05-15T17:24:41;16.10;99.90
31455;DHT22;18084;53.028;8.834;2023-05-15T17:27:08;16.30;99.90
31455;DHT22;18084;53.028;8.834;2023-05-15T17:29:33;15.80;99.90
31455;DHT22;18084;53.028;8.834;2023-05-15T17:32:02;15.90;99.90
31455;DHT22;18084;53.028;8.834;2023-05-15T17:34:28;15.70;99.90
31455;DHT22;18084;53.028;8.834;2023-05-15T17:36:53;16.20;99.90
31455;DHT22;18084;53.028;8.834;2023-05-15T17:39:19;15.60;99.90
31455;DHT22;18084;53.028;8.834;2023-05-15T17:41:45;17.20;99.90
31455;DHT22;18084;53.028;8.834;2023-05-15T17:44:11;14.90;99.90
31455;DHT22;18084;53.028;8.834;2023-05-15T17:46:37;15.20;99.90
31455;DHT22;18084;53.028;8.834;2023-05-15T17:49:02;16.80;99.90
31455;DHT22;18084;53.028;8.834;2023-05-15T17:51:29;14.70;99.90
31455;DHT22;18084;53.028;8.834;2023-05-15T17:53:55;14.40;99.90
31455;DHT22;18084;53.028;8.834;2023-05-15T17:56:20;14.30;99.90
31455;DHT22;18084;53.028;8.834;2023-05-15T17:58:46;14.10;1.00
31455;DHT22;18084;53.028;8.834;2023-05-15T18:01:11;14.10;1.00
31455;DHT22;18084;53.028;8.834;2023-05-15T18:03:37;13.80;1.00
31455;DHT22;18084;53.028;8.834;2023-05-15T18:06:02;13.70;1.00
31455;DHT22;18084;53.028;8.834;2023-05-15T18:08:31;13.80;1.00
31455;DHT22;18084;53.028;8.834;2023-05-15T18:10:56;13.80;1.00
31455;DHT22;18084;53.028;8.834;2023-05-15T18:13:22;14.50;1.00
31455;DHT22;18084;53.028;8.834;2023-05-15T18:15:47;13.80;1.00
31455;DHT22;18084;53.028;8.834;2023-05-15T18:18:13;13.60;1.00
31455;DHT22;18084;53.028;8.834;2023-05-15T18:20:38;13.50;1.00
31455;DHT22;18084;53.028;8.834;2023-05-15T18:23:04;13.80;1.00
31455;DHT22;18084;53.028;8.834;2023-05-15T18:25:31;13.20;1.00
31455;DHT22;18084;53.028;8.834;2023-05-15T18:28:01;13.30;1.00
31455;DHT22;18084;53.028;8.834;2023-05-15T18:30:27;13.70;1.00
31455;DHT22;18084;53.028;8.834;2023-05-15T18:32:52;13.20;1.00
31455;DHT22;18084;53.028;8.834;2023-05-15T18:35:18;13.20;1.00
31455;DHT22;18084;53.028;8.834;2023-05-15T18:37:43;12.90;1.00
31455;DHT22;18084;53.028;8.834;2023-05-15T18:40:09;12.90;1.00
31455;DHT22;18084;53.028;8.834;2023-05-15T18:42:35;12.60;1.00
31455;DHT22;18084;53.028;8.834;2023-05-15T18:45:04;12.60;1.00
31455;DHT22;18084;53.028;8.834;2023-05-15T18:47:30;12.60;1.00
31455;DHT22;18084;53.028;8.834;2023-05-15T18:49:55;12.40;1.00
31455;DHT22;18084;53.028;8.834;2023-05-15T18:52:21;13.00;1.00
31455;DHT22;18084;53.028;8.834;2023-05-15T18:54:47;12.40;1.00
31455;DHT22;18084;53.028;8.834;2023-05-15T18:57:12;12.50;1.00
31455;DHT22;18084;53.028;8.834;2023-05-15T18:59:41;12.30;1.00
31455;DHT22;18084;53.028;8.834;2023-05-15T19:02:06;12.30;1.10
31455;DHT22;18084;53.028;8.834;2023-05-15T19:04:35;12.20;4.40
31455;DHT22;18084;53.028;8.834;2023-05-15T19:07:01;12.20;5.00
31455;DHT22;18084;53.028;8.834;2023-05-15T19:09:26;12.20;7.00
31455;DHT22;18084;53.028;8.834;2023-05-15T19:11:52;12.10;12.10
31455;DHT22;18084;53.028;8.834;2023-05-15T19:14:17;12.00;18.30
31455;DHT22;18084;53.028;8.834;2023-05-15T19:16:46;12.10;17.80
31455;DHT22;18084;53.028;8.834;2023-05-15T19:19:12;12.00;25.60
31455;DHT22;18084;53.028;8.834;2023-05-15T19:21:37;11.90;31.60
31455;DHT22;18084;53.028;8.834;2023-05-15T19:24:06;11.90;41.80
31455;DHT22;18084;53.028;8.834;2023-05-15T19:26:31;11.80;50.30
31455;DHT22;18084;53.028;8.834;2023-05-15T19:28:57;11.70;45.10
31455;DHT22;18084;53.028;8.834;2023-05-15T19:31:22;11.90;44.30
31455;DHT22;18084;53.028;8.834;2023-05-15T19:33:48;12.90;39.70
31455;DHT22;18084;53.028;8.834;2023-05-15T19:36:13;13.70;37.20
31455;DHT22;18084;53.028;8.834;2023-05-15T19:38:39;12.80;42.20
31455;DHT22;18084;53.028;8.834;2023-05-15T19:41:05;11.90;35.70
31455;DHT22;18084;53.028;8.834;2023-05-15T19:43:30;12.00;37.60
31455;DHT22;18084;53.028;8.834;2023-05-15T19:46:00;13.40;30.70
31455;DHT22;18084;53.028;8.834;2023-05-15T19:48:26;11.80;29.90
31455;DHT22;18084;53.028;8.834;2023-05-15T19:50:51;12.00;26.60
31455;DHT22;18084;53.028;8.834;2023-05-15T19:53:17;12.00;35.40
31455;DHT22;18084;53.028;8.834;2023-05-15T19:55:42;12.20;37.40
31455;DHT22;18084;53.028;8.834;2023-05-15T19:58:11;11.90;27.40
31455;DHT22;18084;53.028;8.834;2023-05-15T20:00:37;11.80;29.60
31455;DHT22;18084;53.028;8.834;2023-05-15T20:03:02;11.80;30.10
31455;DHT22;18084;53.028;8.834;2023-05-15T20:05:28;11.90;37.70
31455;DHT22;18084;53.028;8.834;2023-05-15T20:07:53;11.90;38.80
31455;DHT22;18084;53.028;8.834;2023-05-15T20:10:20;12.00;36.10
31455;DHT22;18084;53.028;8.834;2023-05-15T20:12:47;12.00;41.20
31455;DHT22;18084;53.028;8.834;2023-05-15T20:15:13;11.90;45.00
31455;DHT22;18084;53.028;8.834;2023-05-15T20:17:40;11.90;49.60
31455;DHT22;18084;53.028;8.834;2023-05-15T20:20:09;12.00;55.40
31455;DHT22;18084;53.028;8.834;2023-05-15T20:22:39;11.90;50.00
31455;DHT22;18084;53.028;8.834;2023-05-15T20:25:05;12.10;54.90
31455;DHT22;18084;53.028;8.834;2023-05-15T20:27:32;12.10;49.00
31455;DHT22;18084;53.028;8.834;2023-05-15T20:29:58;13.80;48.40
31455;DHT22;18084;53.028;8.834;2023-05-15T20:32:24;13.90;50.20
31455;DHT22;18084;53.028;8.834;2023-05-15T20:34:50;12.20;47.60
31455;DHT22;18084;53.028;8.834;2023-05-15T20:37:16;12.20;53.40
31455;DHT22;18084;53.028;8.834;2023-05-15T20:39:42;12.00;43.80